Time;durP1;ratioP1;P1;durP2;ratioP2;P2;SDS_P1;SDS_P2;PMS_P1;PMS_P2;Temp;Humidity;BMP_temperature;BMP_pressure;BME280_temperature;BME280_humidity;BME280_pressure;Samples;Min_cycle;Max_cycle;Signal;HPM_P1;HPM_P2
2023/01/18 00:00:40;;;;;;;0.98;0.70;;;;;;;9.88;49.10;92023.91;4998240;28;20503;-81
2023/01/18 00:03:11;;;;;;;2.67;1.02;;;;;;;9.74;48.93;92034.25;4997482;28;20042;-82
2023/01/18 00:05:39;;;;;;;3.33;1.00;;;;;;;9.97;48.68;92050.28;4981392;28;20072;-81
2023/01/18 00:08:17;;;;;;;1.67;0.93;;;;;;;10.04;48.47;92069.75;4998167;28;20038;-82
2023/01/18 00:10:43;;;;;;;1.20;0.60;;;;;;;9.94;48.85;92046.41;4998044;28;20520;-81
2023/01/18 00:13:09;;;;;;;4.85;0.70;;;;;;;9.76;48.94;92040.78;4998392;28;20707;-80
2023/01/18 00:15:36;;;;;;;2.58;0.80;;;;;;;9.81;48.58;92050.34;4998747;28;20025;-81
2023/01/18 00:18:01;;;;;;;0.75;0.75;;;;;;;9.82;48.78;92099.66;4999026;28;20041;-81
2023/01/18 00:20:29;;;;;;;1.25;0.80;;;;;;;9.94;49.00;92090.78;4996022;28;20068;-81
2023/01/18 00:22:54;;;;;;;3.28;0.88;;;;;;;10.01;48.91;92112.19;4992022;28;20347;-81
2023/01/18 00:25:22;;;;;;;6.43;1.17;;;;;;;10.03;48.86;92084.13;4971400;28;20030;-81
2023/01/18 00:27:50;;;;;;;2.85;0.73;;;;;;;9.94;49.03;92067.66;4993362;28;20521;-81
2023/01/18 00:30:19;;;;;;;4.88;0.93;;;;;;;9.92;48.63;92109.75;4995894;28;20030;-81
2023/01/18 00:32:45;;;;;;;1.48;1.25;;;;;;;10.03;49.01;92078.81;4997261;28;20383;-81
2023/01/18 00:35:11;;;;;;;3.70;0.90;;;;;;;9.93;48.84;92074.06;4997334;28;20361;-81
2023/01/18 00:37:37;;;;;;;1.27;0.73;;;;;;;9.95;49.11;92100.28;4997505;28;20411;-81
2023/01/18 00:40:04;;;;;;;4.07;0.68;;;;;;;9.86;49.08;92045.53;4980704;28;20056;-80
2023/01/18 00:45:14;;;;;;;2.40;1.23;;;;;;;9.86;49.39;92066.75;4999244;28;20049;-81
2023/01/18 00:47:39;;;;;;;4.57;0.82;;;;;;;9.78;49.01;92046.47;4980421;28;20037;-82
2023/01/18 00:50:05;;;;;;;3.03;1.02;;;;;;;9.98;49.42;92091.63;4998476;28;20497;-82
2023/01/18 00:52:32;;;;;;;2.05;0.60;;;;;;;9.87;49.27;92072.84;4997222;28;20038;-82
2023/01/18 00:54:58;;;;;;;3.60;0.70;;;;;;;9.89;49.02;92034.19;4975499;28;20121;-81
2023/01/18 00:57:23;;;;;;;2.08;0.77;;;;;;;9.83;49.32;92048.09;4979847;28;20020;-82
2023/01/18 00:59:48;;;;;;;1.70;1.00;;;;;;;9.79;48.78;92058.66;4971795;28;20038;-82
2023/01/18 01:02:14;;;;;;;3.55;0.82;;;;;;;10.09;48.97;92090.72;4998833;28;20030;-81
2023/01/18 01:07:24;;;;;;;1.50;0.60;;;;;;;9.77;49.15;92049.50;4998236;28;20037;-81
2023/01/18 01:09:50;;;;;;;2.30;0.80;;;;;;;10.01;49.32;92128.88;4996910;28;20030;-81
2023/01/18 01:26:07;;;;;;;1.90;0.90;;;;;;;9.97;49.68;92093.53;4998760;28;20044;-81
2023/01/18 01:28:51;;;;;;;4.00;0.70;;;;;;;10.00;49.37;92082.19;4998280;28;20038;-81
2023/01/18 01:31:18;;;;;;;3.10;0.90;;;;;;;10.03;49.55;92094.00;4997257;28;20053;-82
2023/01/18 01:33:44;;;;;;;4.53;0.95;;;;;;;10.01;49.44;92073.13;4997710;28;20080;-80
2023/01/18 01:36:12;;;;;;;3.20;1.00;;;;;;;9.99;49.46;92106.44;4998460;28;20042;-80
2023/01/18 01:38:40;;;;;;;1.40;0.70;;;;;;;9.98;49.31;92086.31;4997446;28;20037;-80
2023/01/18 01:41:09;;;;;;;6.38;0.98;;;;;;;9.79;49.29;92074.56;4980350;28;20030;-80
2023/01/18 01:44:22;;;;;;;3.70;1.00;;;;;;;10.11;49.11;92112.38;4966297;28;20265;-80
2023/01/18 01:46:51;;;;;;;2.67;1.00;;;;;;;9.86;49.30;92056.16;4996706;28;20038;-82
2023/01/18 01:49:20;;;;;;;1.48;0.70;;;;;;;10.11;48.12;92082.41;5001204;28;20118;-79
2023/01/18 01:51:51;;;;;;;4.72;0.68;;;;;;;10.15;48.43;92123.84;5003779;28;20034;-78
2023/01/18 01:54:22;;;;;;;1.88;0.82;;;;;;;10.06;48.55;92147.19;5001402;28;20077;-79
2023/01/18 01:56:52;;;;;;;2.78;0.70;;;;;;;10.28;47.71;92133.19;4999989;28;20454;-78
2023/01/18 01:59:18;;;;;;;1.95;0.75;;;;;;;10.22;48.19;92134.59;4973673;28;20123;-79
2023/01/18 02:01:45;;;;;;;2.70;1.63;;;;;;;10.19;48.05;92132.66;4981313;28;20096;-80
2023/01/18 02:04:11;;;;;;;2.15;0.80;;;;;;;10.35;48.25;92131.78;4998870;28;20037;-79
2023/01/18 02:06:38;;;;;;;3.45;0.80;;;;;;;10.25;48.13;92112.66;5001404;28;20021;-80
2023/01/18 02:09:14;;;;;;;3.22;1.05;;;;;;;10.33;48.15;92098.38;4980234;28;20082;-79
2023/01/18 02:11:41;;;;;;;9.40;1.20;;;;;;;10.22;48.17;92100.06;5000395;28;20062;-79
2023/01/18 02:14:11;;;;;;;3.15;1.10;;;;;;;10.27;47.86;92078.50;4997241;28;20038;-79
2023/01/18 02:16:59;;;;;;;4.35;1.00;;;;;;;10.29;48.01;92118.78;5000733;28;20044;-79
2023/01/18 02:19:33;;;;;;;3.65;1.08;;;;;;;10.24;48.13;92100.47;5000271;28;20042;-79
2023/01/18 02:22:08;;;;;;;4.65;0.98;;;;;;;9.97;48.95;92084.78;5000244;28;20040;-78
2023/01/18 02:24:52;;;;;;;;;;;;;;;10.13;48.58;92107.47;4999168;28;20030;-80
2023/01/18 02:27:23;;;;;;;7.30;1.02;;;;;;;10.18;48.69;92109.84;5000130;28;19921;-79
2023/01/18 02:30:20;;;;;;;1.65;0.77;;;;;;;10.18;48.40;92085.16;4999496;28;20037;-79
2023/01/18 02:32:52;;;;;;;3.72;1.48;;;;;;;10.25;48.25;92109.22;5000475;28;20036;-80
2023/01/18 02:35:46;;;;;;;2.45;0.90;;;;;;;10.18;48.48;92069.22;4998330;28;20049;-80
2023/01/18 02:38:19;;;;;;;4.75;0.90;;;;;;;10.17;48.51;92115.53;5001742;28;20037;-79
2023/01/18 02:41:00;;;;;;;6.53;1.80;;;;;;;10.36;48.26;92144.78;4999927;28;20038;-79
2023/01/18 02:46:32;;;;;;;5.20;1.13;;;;;;;10.39;47.74;92133.44;5000817;28;20664;-80
2023/01/18 02:49:05;;;;;;;3.97;1.25;;;;;;;10.30;48.07;92117.69;4999791;28;20037;-79
2023/01/18 02:51:32;;;;;;;2.25;0.80;;;;;;;10.27;48.07;92107.75;4975389;28;20436;-80
2023/01/18 02:53:58;;;;;;;6.70;1.88;;;;;;;10.26;47.85;92121.41;4999660;28;20177;-79
2023/01/18 02:56:41;;;;;;;3.90;1.00;;;;;;;10.31;48.08;92164.41;4981956;28;20636;-80
2023/01/18 02:59:15;;;;;;;5.13;1.00;;;;;;;10.39;47.76;92157.34;5000770;28;20041;-80
2023/01/18 03:01:49;;;;;;;2.90;1.27;;;;;;;10.30;48.09;92173.47;4980026;28;20042;-79
2023/01/18 03:04:43;;;;;;;6.03;1.10;;;;;;;10.22;48.47;92158.50;5000961;28;20045;-79
2023/01/18 03:07:19;;;;;;;3.28;1.00;;;;;;;10.18;48.02;92131.09;4997905;28;20046;-79
2023/01/18 03:09:45;;;;;;;2.75;1.13;;;;;;;10.13;47.65;92093.44;4970816;28;20564;-80
2023/01/18 03:12:19;;;;;;;3.53;0.80;;;;;;;10.33;47.44;92087.75;4999699;28;20122;-80
2023/01/18 03:14:48;;;;;;;3.78;1.30;;;;;;;10.53;47.14;92122.28;4998505;28;20038;-79
2023/01/18 03:17:40;;;;;;;3.50;0.95;;;;;;;10.53;46.69;92127.59;4999929;28;20041;-79
2023/01/18 03:20:10;;;;;;;2.33;0.73;;;;;;;10.50;46.90;92109.72;4982357;28;20703;-79
2023/01/18 03:25:35;;;;;;;3.58;1.15;;;;;;;10.33;46.60;92077.13;4999062;28;20605;-79
2023/01/18 03:34:08;;;;;;;2.50;1.10;;;;;;;10.52;46.35;92084.31;4999070;28;20037;-79
2023/01/18 03:36:43;;;;;;;4.18;0.90;;;;;;;10.48;46.76;92106.63;4998335;28;20422;-79
2023/01/18 03:39:14;;;;;;;5.18;1.58;;;;;;;10.56;47.02;92140.19;4999850;28;20061;-79
2023/01/18 03:41:44;;;;;;;8.18;1.30;;;;;;;10.53;47.03;92111.66;4996633;28;20033;-80
2023/01/18 03:44:24;;;;;;;3.92;0.80;;;;;;;10.53;46.56;92119.63;4999918;28;20390;-79
2023/01/18 03:46:50;;;;;;;4.75;1.08;;;;;;;10.44;46.52;92092.50;4996005;28;20449;-80
2023/01/18 03:49:16;;;;;;;1.17;0.70;;;;;;;10.29;46.69;92092.22;4999153;28;20113;-80
2023/01/18 03:52:00;;;;;;;6.25;0.98;;;;;;;10.29;47.09;92129.44;4998924;28;20038;-81
2023/01/18 03:54:33;;;;;;;2.78;1.15;;;;;;;10.48;46.76;92130.53;5001021;28;20073;-80
2023/01/18 03:57:18;;;;;;;4.95;0.90;;;;;;;10.53;46.57;92139.00;4971635;28;20379;-80
2023/01/18 03:59:45;;;;;;;2.97;1.20;;;;;;;10.41;46.82;92104.63;4995983;28;20544;-80
2023/01/18 04:02:10;;;;;;;1.95;0.70;;;;;;;10.40;46.55;92071.19;4999005;28;20038;-80
2023/01/18 04:04:36;;;;;;;8.85;1.17;;;;;;;10.44;46.59;92119.09;4996450;28;20409;-80
2023/01/18 04:07:01;;;;;;;2.78;0.93;;;;;;;10.56;46.26;92111.72;4999466;28;20049;-79
2023/01/18 04:09:26;;;;;;;5.78;1.05;;;;;;;10.44;46.50;92132.38;4979412;28;20030;-79
2023/01/18 04:11:52;;;;;;;0.98;0.73;;;;;;;10.39;46.42;92122.03;4980528;28;20453;-81
2023/01/18 04:14:18;;;;;;;8.02;1.20;;;;;;;10.19;47.10;92130.00;4999348;28;20048;-79
2023/01/18 04:16:43;;;;;;;2.25;1.00;;;;;;;10.34;46.76;92112.44;4996191;28;20581;-79
2023/01/18 04:19:09;;;;;;;4.30;1.17;;;;;;;10.33;46.50;92122.28;5000136;28;20457;-80
2023/01/18 04:21:37;;;;;;;2.42;0.80;;;;;;;10.42;46.48;92108.03;4996713;28;20026;-80
2023/01/18 04:24:03;;;;;;;4.63;0.75;;;;;;;10.44;46.62;92137.69;4997455;28;20038;-80
2023/01/18 04:26:29;;;;;;;4.68;0.82;;;;;;;10.45;46.32;92104.69;4997560;28;20516;-80
2023/01/18 04:28:54;;;;;;;4.15;1.27;;;;;;;10.58;46.13;92114.03;5000274;28;20030;-78
2023/01/18 04:31:20;;;;;;;5.70;1.25;;;;;;;10.52;46.55;92115.41;4998055;28;20049;-81
2023/01/18 04:33:50;;;;;;;5.68;1.00;;;;;;;10.60;45.89;92141.03;4997910;28;20037;-79
2023/01/18 04:36:15;;;;;;;1.95;0.85;;;;;;;10.53;46.06;92154.19;4997311;28;20045;-79
2023/01/18 04:38:41;;;;;;;3.28;1.05;;;;;;;10.68;46.28;92155.97;4997010;28;20466;-80
2023/01/18 04:41:06;;;;;;;2.72;1.00;;;;;;;10.50;46.09;92115.78;4996043;28;20069;-79
2023/01/18 04:43:32;;;;;;;3.28;1.08;;;;;;;10.12;46.63;92081.28;4997312;28;20998;-79
2023/01/18 04:45:57;;;;;;;5.82;1.65;;;;;;;10.24;46.47;92135.03;4998163;28;20397;-79
2023/01/18 04:48:23;;;;;;;6.50;1.88;;;;;;;10.20;46.96;92104.19;4997058;28;20030;-80
2023/01/18 04:50:50;;;;;;;6.97;1.20;;;;;;;10.29;46.94;92096.78;4997957;28;20030;-80
2023/01/18 04:53:16;;;;;;;4.05;0.90;;;;;;;10.50;46.48;92107.06;4998594;28;20596;-80
2023/01/18 04:55:42;;;;;;;9.30;1.70;;;;;;;10.45;46.62;92088.75;4996665;28;20045;-79
2023/01/18 04:58:08;;;;;;;3.40;0.90;;;;;;;10.53;46.43;92125.72;4996661;28;20282;-79
2023/01/18 05:00:33;;;;;;;3.78;1.10;;;;;;;10.53;46.15;92112.41;4998671;28;20069;-79
2023/01/18 05:02:59;;;;;;;6.75;0.90;;;;;;;10.50;46.23;92059.22;4998262;28;20128;-80
2023/01/18 05:05:24;;;;;;;4.55;1.00;;;;;;;10.68;45.87;92108.88;4998505;28;20041;-78
2023/01/18 05:07:50;;;;;;;3.38;1.15;;;;;;;10.46;46.25;92112.31;4995641;28;20044;-80
2023/01/18 05:10:15;;;;;;;4.57;1.08;;;;;;;10.55;46.43;92109.41;5000092;28;20037;-80
2023/01/18 05:12:40;;;;;;;4.05;1.52;;;;;;;10.58;46.26;92095.41;4995788;28;20030;-80
2023/01/18 05:15:07;;;;;;;5.32;0.95;;;;;;;10.45;46.07;92078.09;4999501;28;20038;-80
2023/01/18 05:17:33;;;;;;;6.07;1.30;;;;;;;10.58;46.06;92117.44;4997316;28;20146;-79
2023/01/18 05:20:00;;;;;;;3.92;1.75;;;;;;;10.64;46.12;92113.38;4999519;28;20046;-79
2023/01/18 05:22:25;;;;;;;3.45;0.80;;;;;;;10.47;46.33;92075.84;4979431;28;20033;-79
2023/01/18 05:24:51;;;;;;;6.63;1.63;;;;;;;10.51;46.17;92121.88;4999817;28;20072;-79
2023/01/18 05:27:16;;;;;;;3.00;1.00;;;;;;;10.53;46.66;92138.22;4999196;28;20030;-80
2023/01/18 05:29:42;;;;;;;4.80;1.08;;;;;;;10.51;46.62;92119.22;5001520;28;20497;-80
2023/01/18 05:32:09;;;;;;;5.20;1.63;;;;;;;10.64;45.81;92144.50;4982025;28;20029;-80
2023/01/18 05:34:34;;;;;;;95.70;9.20;;;;;;;10.50;46.11;92200.06;5001389;28;20042;-78
2023/01/18 05:37:00;;;;;;;3.67;1.58;;;;;;;10.37;46.37;92134.91;5000317;28;20100;-79
2023/01/18 05:39:25;;;;;;;4.43;1.10;;;;;;;10.27;46.47;92115.72;4986681;28;20121;-79
2023/01/18 05:41:50;;;;;;;4.47;1.17;;;;;;;10.60;45.88;92130.41;4999375;28;20038;-78
2023/01/18 05:44:16;;;;;;;2.72;1.05;;;;;;;10.64;45.62;92125.91;5000137;28;20607;-79
2023/01/18 05:46:41;;;;;;;6.10;1.38;;;;;;;10.53;45.81;92114.31;4982769;28;20038;-79
2023/01/18 05:49:07;;;;;;;3.83;0.98;;;;;;;10.60;45.36;92149.00;5000776;28;20107;-79
2023/01/18 05:51:32;;;;;;;6.85;0.88;;;;;;;10.82;45.62;92166.84;5001815;28;20033;-79
2023/01/18 05:53:57;;;;;;;3.03;1.27;;;;;;;10.66;45.65;92143.03;4979692;28;20048;-79
2023/01/18 05:56:23;;;;;;;3.38;1.30;;;;;;;10.67;45.45;92175.69;5001502;28;20029;-78
2023/01/18 05:58:48;;;;;;;3.20;0.90;;;;;;;10.67;45.64;92160.53;5000559;28;20052;-79
2023/01/18 06:01:14;;;;;;;7.32;1.40;;;;;;;10.72;45.58;92183.38;4999160;28;20058;-79
2023/01/18 06:03:39;;;;;;;3.97;0.88;;;;;;;10.89;45.58;92222.06;5001808;28;20062;-79
2023/01/18 06:06:05;;;;;;;3.53;1.00;;;;;;;10.55;45.86;92158.03;5000316;28;20453;-79
2023/01/18 06:08:31;;;;;;;4.20;1.20;;;;;;;10.71;45.64;92171.22;4998566;28;20048;-78
2023/01/18 06:10:58;;;;;;;4.95;1.42;;;;;;;10.71;45.99;92219.06;4997835;28;20038;-80
2023/01/18 06:13:28;;;;;;;2.08;0.95;;;;;;;10.86;45.75;92209.47;4983031;28;20446;-79
2023/01/18 06:15:54;;;;;;;4.50;1.10;;;;;;;10.54;46.85;92203.56;5000550;28;20112;-79
2023/01/18 06:18:24;;;;;;;6.25;1.15;;;;;;;10.68;46.59;92225.09;5001479;28;20547;-80
2023/01/18 06:20:53;;;;;;;3.75;1.00;;;;;;;10.66;46.59;92206.09;4997555;28;20033;-79
2023/01/18 06:23:19;;;;;;;4.75;1.17;;;;;;;10.67;46.58;92197.75;5002051;28;20057;-79
2023/01/18 06:25:44;;;;;;;4.00;1.20;;;;;;;10.36;46.83;92195.25;4998573;28;20058;-80
2023/01/18 06:28:10;;;;;;;5.47;1.00;;;;;;;10.46;47.26;92231.13;4999462;28;20141;-79
2023/01/18 06:30:35;;;;;;;3.33;0.90;;;;;;;10.55;46.68;92213.09;4999945;28;20026;-79
2023/01/18 06:33:05;;;;;;;3.25;1.00;;;;;;;10.68;47.06;92219.78;5000751;28;20042;-80
2023/01/18 06:35:31;;;;;;;4.20;1.35;;;;;;;10.61;46.58;92235.59;4998355;28;20049;-79
2023/01/18 06:37:57;;;;;;;3.33;1.27;;;;;;;10.63;46.60;92238.66;5001253;28;20573;-80
2023/01/18 06:40:23;;;;;;;4.22;1.17;;;;;;;10.46;47.64;92249.75;4998129;28;20669;-79
2023/01/18 06:42:48;;;;;;;7.53;1.08;;;;;;;10.85;46.95;92253.16;5000049;28;20025;-81
2023/01/18 06:45:15;;;;;;;5.47;1.00;;;;;;;10.71;46.76;92227.81;4998343;28;20037;-80
2023/01/18 06:47:42;;;;;;;6.40;1.33;;;;;;;10.69;47.17;92253.22;4996203;28;20041;-79
2023/01/18 06:50:09;;;;;;;2.53;1.17;;;;;;;10.73;47.39;92249.50;4994937;28;20048;-79
2023/01/18 06:52:34;;;;;;;4.20;1.20;;;;;;;10.55;47.56;92253.72;4997878;28;20398;-80
2023/01/18 06:54:59;;;;;;;5.22;1.20;;;;;;;10.67;47.47;92258.88;4991283;28;20040;-80
2023/01/18 06:57:25;;;;;;;5.57;1.30;;;;;;;10.66;47.95;92253.94;4989828;28;20144;-79
2023/01/18 06:59:52;;;;;;;7.57;1.15;;;;;;;10.61;47.70;92243.59;4994472;28;20133;-79
2023/01/18 07:02:18;;;;;;;4.78;1.55;;;;;;;10.50;47.49;92200.06;4997332;28;20041;-78
2023/01/18 07:04:44;;;;;;;7.88;1.08;;;;;;;10.66;47.75;92222.03;4978358;28;20157;-80
2023/01/18 07:07:10;;;;;;;3.75;1.17;;;;;;;10.67;47.10;92202.28;4998589;28;20049;-82
2023/01/18 07:09:36;;;;;;;3.22;1.20;;;;;;;10.70;47.25;92236.16;4989644;28;20048;-80
2023/01/18 07:12:01;;;;;;;6.00;1.23;;;;;;;10.80;47.20;92218.88;4978800;28;20050;-79
2023/01/18 07:14:27;;;;;;;9.48;1.60;;;;;;;10.64;47.18;92232.25;4999094;28;20436;-81
2023/01/18 07:16:53;;;;;;;2.50;1.10;;;;;;;10.85;47.36;92250.50;4979196;28;20060;-79
2023/01/18 07:19:18;;;;;;;14.30;1.75;;;;;;;10.69;46.83;92200.81;4994941;28;20046;-79
2023/01/18 07:21:43;;;;;;;7.03;1.52;;;;;;;10.76;46.89;92204.75;4994297;28;20041;-80
2023/01/18 07:24:09;;;;;;;8.95;1.60;;;;;;;10.74;46.85;92197.09;4979853;28;20042;-80
2023/01/18 07:26:34;;;;;;;4.38;1.63;;;;;;;10.83;46.73;92200.31;4979086;28;20662;-79
2023/01/18 07:29:00;;;;;;;5.15;1.02;;;;;;;10.86;46.88;92180.22;4997373;28;20041;-79
2023/01/18 07:31:26;;;;;;;5.13;1.00;;;;;;;10.91;46.34;92172.72;4998791;28;20034;-79
2023/01/18 07:33:51;;;;;;;5.78;1.33;;;;;;;10.84;46.83;92191.22;4997215;28;20053;-80
2023/01/18 07:36:18;;;;;;;3.20;1.63;;;;;;;10.87;47.12;92206.47;4997985;28;20548;-80
2023/01/18 07:38:43;;;;;;;9.90;1.30;;;;;;;10.91;46.53;92225.13;4977736;28;20074;-81
2023/01/18 07:41:13;;;;;;;3.58;1.23;;;;;;;10.92;46.57;92250.59;4998026;28;20045;-81
2023/01/18 07:43:39;;;;;;;5.03;1.25;;;;;;;10.86;46.99;92238.72;4996067;28;20065;-79
2023/01/18 07:46:08;;;;;;;9.45;1.55;;;;;;;10.96;46.62;92257.53;4979373;28;20492;-79
2023/01/18 07:48:33;;;;;;;6.22;1.33;;;;;;;11.11;46.49;92250.56;4998215;28;20212;-79
2023/01/18 07:51:01;;;;;;;5.68;0.98;;;;;;;11.17;46.46;92273.13;4997800;28;20046;-80
2023/01/18 07:53:28;;;;;;;5.57;1.40;;;;;;;11.15;46.45;92301.94;4997368;28;20037;-79
2023/01/18 07:55:59;;;;;;;3.65;1.02;;;;;;;11.20;45.94;92292.94;4967237;28;20045;-80
2023/01/18 07:58:24;;;;;;;6.00;1.05;;;;;;;11.16;46.05;92325.56;4996245;28;20302;-78
2023/01/18 08:00:50;;;;;;;4.78;1.38;;;;;;;11.28;46.35;92295.38;4977697;28;20045;-79
2023/01/18 08:03:17;;;;;;;4.60;1.30;;;;;;;11.33;46.12;92329.69;4996342;28;20037;-79
2023/01/18 08:05:44;;;;;;;2.22;1.20;;;;;;;11.37;45.92;92373.09;4971904;28;20494;-80
2023/01/18 08:08:15;;;;;;;5.20;0.90;;;;;;;11.16;45.90;92319.47;4995070;28;20459;-79
2023/01/18 08:10:41;;;;;;;6.20;1.20;;;;;;;11.43;45.85;92331.00;4976883;28;20092;-80
2023/01/18 08:13:08;;;;;;;2.95;0.90;;;;;;;11.58;45.44;92341.56;4995797;28;20605;-79
2023/01/18 08:15:35;;;;;;;8.52;1.02;;;;;;;11.49;45.90;92364.94;4997007;28;20501;-80
2023/01/18 08:18:05;;;;;;;4.38;1.58;;;;;;;11.46;45.94;92346.25;4994919;28;20182;-80
2023/01/18 08:20:31;;;;;;;5.63;2.58;;;;;;;11.43;45.59;92349.63;4997330;28;20116;-80
2023/01/18 08:22:57;;;;;;;8.68;1.25;;;;;;;11.64;45.46;92368.66;4994620;28;20044;-80
2023/01/18 08:25:30;;;;;;;6.75;1.17;;;;;;;11.72;45.51;92377.53;4995897;28;20129;-79
2023/01/18 08:27:58;;;;;;;9.43;1.23;;;;;;;11.69;45.06;92386.22;4995724;28;20514;-80
2023/01/18 08:30:29;;;;;;;11.00;2.13;;;;;;;11.56;45.69;92390.97;4996208;28;20517;-79
2023/01/18 08:32:56;;;;;;;5.57;1.08;;;;;;;11.58;45.79;92405.47;4999052;28;20119;-79
2023/01/18 08:35:23;;;;;;;8.38;1.17;;;;;;;11.30;46.24;92362.31;4994734;28;20034;-79
2023/01/18 08:37:48;;;;;;;3.47;1.10;;;;;;;11.42;46.09;92353.41;4998144;28;20030;-81
2023/01/18 08:40:14;;;;;;;7.15;1.30;;;;;;;11.46;45.92;92354.22;4992822;28;20046;-81
2023/01/18 08:42:39;;;;;;;6.20;1.15;;;;;;;11.66;46.26;92347.00;4997686;28;20348;-80
2023/01/18 08:45:05;;;;;;;3.28;1.38;;;;;;;11.86;45.58;92377.78;4993800;28;20115;-80
2023/01/18 08:47:31;;;;;;;8.27;1.27;;;;;;;11.74;45.81;92349.44;4994810;28;20410;-79
2023/01/18 08:49:56;;;;;;;6.97;1.40;;;;;;;11.64;46.00;92344.69;4994166;28;20042;-79
2023/01/18 08:52:22;;;;;;;4.60;1.10;;;;;;;11.58;45.43;92346.13;4997556;28;20062;-82
2023/01/18 08:54:47;;;;;;;11.68;2.25;;;;;;;11.48;46.08;92374.06;4998110;28;20030;-80
2023/01/18 08:57:12;;;;;;;6.78;1.15;;;;;;;11.59;46.14;92374.25;4998996;28;20068;-81
2023/01/18 08:59:38;;;;;;;6.80;1.45;;;;;;;11.45;46.12;92369.44;4998031;28;20069;-79
2023/01/18 09:02:03;;;;;;;7.07;1.48;;;;;;;11.42;46.18;92375.47;4981496;28;20101;-80
2023/01/18 09:04:29;;;;;;;6.93;1.45;;;;;;;11.58;45.74;92383.41;4995340;28;20484;-78
2023/01/18 09:06:54;;;;;;;3.53;1.40;;;;;;;11.79;45.72;92399.72;4977533;28;20028;-80
2023/01/18 09:09:20;;;;;;;6.57;1.10;;;;;;;11.89;45.45;92407.16;4992822;28;20053;-79
2023/01/18 09:11:45;;;;;;;5.53;1.55;;;;;;;12.00;45.30;92426.75;4996782;28;20497;-79
2023/01/18 09:14:10;;;;;;;3.35;1.55;;;;;;;12.07;45.16;92420.00;4994863;28;20045;-78
2023/01/18 09:16:36;;;;;;;8.65;1.35;;;;;;;11.75;45.62;92417.56;4975872;28;20471;-79
2023/01/18 09:19:05;;;;;;;4.53;1.15;;;;;;;11.87;45.68;92441.38;4995320;28;20478;-80
2023/01/18 09:21:30;;;;;;;4.45;1.13;;;;;;;11.85;45.79;92427.63;4993447;28;20030;-81
2023/01/18 09:23:58;;;;;;;6.72;1.75;;;;;;;11.93;45.44;92431.94;4996899;28;20111;-79
2023/01/18 09:26:23;;;;;;;7.43;1.30;;;;;;;11.83;45.50;92402.47;4994608;28;20049;-79
2023/01/18 09:28:51;;;;;;;6.38;1.30;;;;;;;12.04;45.37;92435.56;4978002;28;20034;-80
2023/01/18 09:31:18;;;;;;;8.95;1.20;;;;;;;11.83;45.95;92459.16;4998187;28;20045;-79
2023/01/18 09:33:43;;;;;;;8.63;1.45;;;;;;;11.91;46.30;92449.41;4993823;28;20029;-80
2023/01/18 09:36:11;;;;;;;6.60;2.15;;;;;;;12.07;45.27;92426.13;4996311;28;20038;-79
2023/01/18 09:38:38;;;;;;;6.80;1.75;;;;;;;11.97;45.99;92464.78;4996484;28;20062;-79
2023/01/18 09:41:06;;;;;;;6.35;2.03;;;;;;;11.86;45.89;92439.06;4980124;28;20049;-80
2023/01/18 09:43:42;;;;;;;9.48;1.20;;;;;;;11.99;45.30;92481.16;4994741;28;20037;-80
2023/01/18 09:46:21;;;;;;;6.80;1.67;;;;;;;11.72;46.02;92468.88;4997531;28;20037;-79
2023/01/18 09:49:12;;;;;;;6.10;1.17;;;;;;;11.54;45.86;92435.81;4995834;28;20030;-79
2023/01/18 09:51:59;;;;;;;6.50;1.33;;;;;;;11.82;45.91;92468.28;4995368;28;20049;-80
2023/01/18 09:54:32;;;;;;;11.10;2.35;;;;;;;12.12;45.96;92459.69;4998265;28;20052;-80
2023/01/18 09:57:07;;;;;;;3.28;1.40;;;;;;;12.08;45.57;92467.59;4975758;28;20037;-79
2023/01/18 09:59:41;;;;;;;6.82;2.05;;;;;;;11.91;44.72;92447.53;4997113;28;20125;-78
2023/01/18 10:02:27;;;;;;;9.35;1.70;;;;;;;12.00;45.78;92466.72;4997129;28;20053;-80
2023/01/18 10:05:03;;;;;;;4.35;1.67;;;;;;;11.89;45.07;92439.13;4975808;28;20038;-79
2023/01/18 10:07:32;;;;;;;7.97;1.70;;;;;;;11.98;44.94;92466.28;4995431;28;20127;-80
2023/01/18 10:10:00;;;;;;;8.20;1.27;;;;;;;11.87;45.30;92452.03;4979700;28;20033;-80
2023/01/18 10:12:29;;;;;;;4.68;1.35;;;;;;;12.01;44.71;92456.84;5000005;28;20053;-79
2023/01/18 10:15:19;;;;;;;8.15;2.00;;;;;;;11.86;45.05;92429.16;4998508;28;20034;-79
2023/01/18 10:17:46;;;;;;;8.27;1.38;;;;;;;12.06;44.73;92442.44;4999457;28;20039;-80
2023/01/18 10:20:13;;;;;;;10.13;1.38;;;;;;;12.20;44.37;92450.69;4999693;28;20041;-80
2023/01/18 10:22:53;;;;;;;7.35;1.80;;;;;;;12.20;44.43;92434.69;4998586;28;20045;-81
2023/01/18 10:25:46;;;;;;;9.00;1.48;;;;;;;12.30;43.87;92450.88;5000680;28;20029;-80
2023/01/18 10:28:31;;;;;;;8.50;1.75;;;;;;;12.09;44.03;92455.06;4975337;28;20034;-81
2023/01/18 10:31:09;;;;;;;3.97;1.60;;;;;;;11.93;43.76;92421.28;4999680;28;20026;-79
2023/01/18 10:33:40;;;;;;;10.20;1.63;;;;;;;11.80;44.96;92456.44;5000121;28;20108;-79
2023/01/18 10:36:17;;;;;;;4.70;1.30;;;;;;;11.73;45.52;92465.09;5000213;28;20461;-79
2023/01/18 10:38:44;;;;;;;7.45;1.67;;;;;;;11.98;44.77;92463.63;5001657;28;20132;-80
2023/01/18 10:41:27;;;;;;;4.75;1.08;;;;;;;11.87;44.99;92454.69;4998566;28;20053;-80
2023/01/18 10:43:53;;;;;;;10.82;1.70;;;;;;;12.12;44.55;92486.34;4998192;28;20030;-79
2023/01/18 10:46:19;;;;;;;33.58;11.77;;;;;;;12.17;44.29;92467.41;4999201;28;20664;-80
2023/01/18 10:48:50;;;;;;;6.93;1.52;;;;;;;12.10;43.85;92469.91;4972439;28;20497;-79
2023/01/18 10:51:37;;;;;;;5.35;1.30;;;;;;;11.96;44.80;92479.22;4999272;28;20272;-81
2023/01/18 10:54:25;;;;;;;5.43;1.25;;;;;;;12.10;44.35;92488.56;4995317;28;20038;-80
2023/01/18 10:57:18;;;;;;;6.63;1.30;;;;;;;12.18;44.43;92500.88;4995804;28;20137;-79
2023/01/18 10:59:44;;;;;;;8.82;1.23;;;;;;;12.12;44.44;92497.00;4996723;28;20605;-80
2023/01/18 11:02:22;;;;;;;6.13;1.88;;;;;;;12.04;45.06;92499.53;4996171;28;20255;-80
2023/01/18 11:04:55;;;;;;;6.60;2.05;;;;;;;12.07;44.70;92486.63;4997332;28;20491;-80
2023/01/18 11:07:26;;;;;;;8.48;1.83;;;;;;;12.04;43.71;92467.53;4978508;28;20494;-80
2023/01/18 11:09:54;;;;;;;16.92;1.80;;;;;;;12.14;44.29;92489.41;4995970;28;20259;-80
2023/01/18 11:12:44;;;;;;;5.80;1.20;;;;;;;12.09;43.99;92465.72;4974009;28;20042;-80
2023/01/18 11:15:12;;;;;;;6.22;1.52;;;;;;;12.13;44.27;92463.88;4997891;28;20097;-80
2023/01/18 11:17:45;;;;;;;3.55;1.27;;;;;;;12.21;43.94;92478.88;4997973;28;20626;-80
2023/01/18 11:20:18;;;;;;;9.13;1.88;;;;;;;12.16;44.00;92471.19;4998837;28;20097;-79
2023/01/18 11:23:13;;;;;;;8.70;2.22;;;;;;;12.08;44.45;92448.22;4997417;28;20484;-81
2023/01/18 11:25:54;;;;;;;11.68;1.65;;;;;;;12.32;44.11;92474.50;4979910;28;20494;-81
2023/01/18 11:28:33;;;;;;;5.72;1.17;;;;;;;12.12;43.65;92449.81;4996766;28;20046;-79
2023/01/18 11:31:12;;;;;;;9.57;1.90;;;;;;;12.27;43.37;92491.53;4967785;28;20112;-81
2023/01/18 11:33:48;;;;;;;9.98;2.53;;;;;;;12.23;43.79;92472.06;4999148;28;20429;-80
2023/01/18 11:36:13;;;;;;;7.90;1.58;;;;;;;11.99;43.97;92478.50;4971379;28;20046;-79
2023/01/18 11:38:40;;;;;;;9.63;1.77;;;;;;;12.05;44.12;92463.00;4979829;28;20049;-79
2023/01/18 11:41:05;;;;;;;8.48;1.40;;;;;;;12.15;43.67;92464.31;4978672;28;20048;-80
2023/01/18 11:43:34;;;;;;;11.85;1.98;;;;;;;12.00;44.21;92449.97;4994758;28;20038;-79
2023/01/18 11:46:12;;;;;;;5.55;1.77;;;;;;;11.93;44.16;92457.84;4996338;28;20104;-79
2023/01/18 11:48:48;;;;;;;9.35;1.88;;;;;;;11.77;44.77;92438.50;4969518;28;20496;-79
2023/01/18 11:51:31;;;;;;;13.02;2.85;;;;;;;11.83;44.53;92448.50;4997385;28;20041;-78
2023/01/18 11:54:02;;;;;;;8.65;1.40;;;;;;;11.92;43.71;92461.63;4996342;28;20045;-80
2023/01/18 11:56:34;;;;;;;10.25;1.95;;;;;;;11.78;44.06;92467.47;4995765;28;20064;-80
2023/01/18 11:59:02;;;;;;;8.90;1.42;;;;;;;11.62;44.56;92420.72;4997226;28;20046;-80
2023/01/18 12:01:42;;;;;;;8.60;1.75;;;;;;;11.90;44.21;92451.31;4995384;28;20046;-79
2023/01/18 12:04:13;;;;;;;8.27;1.67;;;;;;;11.83;44.13;92467.16;4998072;28;20482;-81
2023/01/18 12:06:47;;;;;;;4.82;1.55;;;;;;;11.91;43.81;92433.44;4996292;28;20030;-78
2023/01/18 12:09:20;;;;;;;4.33;1.27;;;;;;;12.10;43.79;92419.28;4970453;28;20050;-79
2023/01/18 12:12:12;;;;;;;10.93;2.17;;;;;;;12.15;43.49;92435.00;4978164;28;20766;-79
2023/01/18 12:15:15;;;;;;;6.80;1.52;;;;;;;12.22;43.48;92433.22;4994099;28;20431;-80
2023/01/18 12:17:49;;;;;;;11.57;2.10;;;;;;;12.01;43.55;92430.97;4995432;28;20062;-79